Time;durP1;ratioP1;P1;durP2;ratioP2;P2;SDS_P1;SDS_P2;PMS_P1;PMS_P2;Temp;Humidity;BMP_temperature;BMP_pressure;BME280_temperature;BME280_humidity;BME280_pressure;Samples;Min_cycle;Max_cycle;Signal;HPM_P1;HPM_P2
2023/04/12 00:00:22;;;;;;;1.77;1.10;;;4.60;99.90;;;;;;5035680;28;20466;-76
2023/04/12 00:02:52;;;;;;;1.77;1.20;;;4.50;99.90;;;;;;5044064;28;20449;-75
2023/04/12 00:05:21;;;;;;;2.00;1.47;;;4.50;99.90;;;;;;5040451;28;20458;-76
2023/04/12 00:07:51;;;;;;;2.13;0.83;;;4.60;99.90;;;;;;5039032;28;20490;-76
2023/04/12 00:10:19;;;;;;;1.57;1.47;;;4.60;99.90;;;;;;5039634;28;20461;-75
2023/04/12 00:12:48;;;;;;;1.33;1.23;;;4.50;99.90;;;;;;5044472;28;20497;-76
2023/04/12 00:15:15;;;;;;;6.60;1.90;;;4.60;99.90;;;;;;5045293;28;20449;-75
2023/04/12 00:17:42;;;;;;;1.67;1.00;;;4.50;99.90;;;;;;5042359;28;20445;-75
2023/04/12 00:20:11;;;;;;;3.67;1.53;;;4.50;99.90;;;;;;5041410;28;21012;-76
2023/04/12 00:22:38;;;;;;;1.10;1.00;;;4.50;99.90;;;;;;5039882;28;20522;-76
2023/04/12 00:25:08;;;;;;;2.03;1.43;;;4.40;99.90;;;;;;5039245;28;20481;-75
2023/04/12 00:27:35;;;;;;;6.33;1.87;;;4.50;99.90;;;;;;5031262;28;20492;-77
2023/04/12 00:30:03;;;;;;;7.30;2.17;;;4.40;99.90;;;;;;5035545;28;20461;-77
2023/04/12 00:32:30;;;;;;;3.77;1.60;;;4.40;99.90;;;;;;5035497;28;20534;-77
2023/04/12 00:34:57;;;;;;;1.27;1.17;;;4.40;99.90;;;;;;5042304;28;20497;-77
2023/04/12 00:37:24;;;;;;;3.27;1.53;;;4.40;99.90;;;;;;5042835;28;20550;-77
2023/04/12 00:39:51;;;;;;;6.00;1.63;;;4.40;99.90;;;;;;5040605;28;20494;-77
2023/04/12 00:42:18;;;;;;;1.90;1.77;;;4.30;99.90;;;;;;5044447;28;21034;-77
2023/04/12 00:44:45;;;;;;;1.83;1.63;;;4.40;99.90;;;;;;5041716;28;20441;-77
2023/04/12 00:47:13;;;;;;;3.30;2.30;;;4.40;99.90;;;;;;5044370;28;20668;-77
2023/04/12 00:49:40;;;;;;;2.63;1.20;;;4.40;99.90;;;;;;5028413;28;20854;-77
2023/04/12 00:52:08;;;;;;;2.50;2.27;;;4.20;99.90;;;;;;5040761;28;20493;-77
2023/04/12 00:54:36;;;;;;;1.97;1.77;;;4.10;99.90;;;;;;5040108;28;20457;-76
2023/04/12 00:57:03;;;;;;;3.60;2.03;;;4.10;99.90;;;;;;5043859;28;20860;-77
2023/04/12 00:59:30;;;;;;;1.63;1.50;;;3.90;99.90;;;;;;5033672;28;20464;-77
2023/04/12 01:01:58;;;;;;;1.67;1.20;;;3.80;99.90;;;;;;5044595;28;20556;-77
2023/04/12 01:04:27;;;;;;;1.47;1.20;;;3.70;99.90;;;;;;5031266;28;20470;-77
2023/04/12 01:07:05;;;;;;;2.60;1.83;;;3.50;99.90;;;;;;5040258;28;20508;-77
2023/04/12 01:09:43;;;;;;;1.20;1.10;;;3.60;99.90;;;;;;5039256;28;20915;-77
2023/04/12 01:12:25;;;;;;;2.10;1.67;;;3.60;99.90;;;;;;5043975;28;20510;-77
2023/04/12 01:14:58;;;;;;;1.40;1.23;;;3.40;99.90;;;;;;5038293;28;20560;-76
2023/04/12 01:17:30;;;;;;;1.33;1.23;;;3.30;99.90;;;;;;5041171;28;20448;-77
2023/04/12 01:20:12;;;;;;;1.20;1.10;;;3.30;99.90;;;;;;5036974;28;20470;-77
2023/04/12 01:22:54;;;;;;;4.33;1.67;;;3.30;99.90;;;;;;5036693;28;20895;-77
2023/04/12 01:25:38;;;;;;;3.03;1.50;;;3.30;99.90;;;;;;5038313;28;20567;-77
2023/04/12 01:28:08;;;;;;;1.93;1.37;;;3.10;99.90;;;;;;5044155;28;20651;-76
2023/04/12 01:30:37;;;;;;;4.03;1.23;;;3.10;99.90;;;;;;5043605;28;20457;-77
2023/04/12 01:33:07;;;;;;;3.33;1.97;;;3.00;99.90;;;;;;5040005;28;20554;-76
2023/04/12 01:35:34;;;;;;;1.57;1.40;;;3.10;99.90;;;;;;5042424;28;20453;-76
2023/04/12 01:38:02;;;;;;;3.40;1.47;;;3.00;99.90;;;;;;5034667;28;20449;-77
2023/04/12 01:40:30;;;;;;;5.33;1.43;;;2.90;99.90;;;;;;5042211;28;21053;-76
2023/04/12 01:43:08;;;;;;;4.23;1.83;;;2.90;99.90;;;;;;5040150;28;20484;-75
2023/04/12 01:45:35;;;;;;;2.37;1.43;;;2.80;99.90;;;;;;5040876;28;20448;-76
2023/04/12 01:48:04;;;;;;;3.37;1.70;;;2.80;99.90;;;;;;5044190;28;20570;-76
2023/04/12 01:50:39;;;;;;;2.43;1.90;;;2.80;99.90;;;;;;5039740;28;20445;-75
2023/04/12 01:53:11;;;;;;;4.77;2.17;;;2.80;99.90;;;;;;5038246;28;20488;-78
2023/04/12 01:55:41;;;;;;;3.43;1.57;;;2.90;99.90;;;;;;5045130;28;20535;-75
2023/04/12 01:58:11;;;;;;;2.33;1.90;;;3.00;99.90;;;;;;5031659;28;20562;-76
2023/04/12 02:00:41;;;;;;;1.57;1.47;;;3.00;99.90;;;;;;5040612;28;20549;-76
2023/04/12 02:03:11;;;;;;;5.63;1.57;;;2.90;99.90;;;;;;5037903;28;20460;-76
2023/04/12 02:05:38;;;;;;;4.23;1.60;;;2.90;99.90;;;;;;5034192;28;20799;-75
2023/04/12 02:08:06;;;;;;;1.53;1.03;;;2.80;99.90;;;;;;5043573;28;20489;-75
2023/04/12 02:10:35;;;;;;;2.43;1.70;;;2.70;99.90;;;;;;5031741;28;20530;-75
2023/04/12 02:13:02;;;;;;;1.97;1.10;;;2.70;99.90;;;;;;5039450;28;20495;-75
2023/04/12 02:15:31;;;;;;;2.73;1.27;;;2.70;99.90;;;;;;5033789;28;20868;-76
2023/04/12 02:17:58;;;;;;;7.40;1.80;;;2.70;99.90;;;;;;5042778;28;20488;-76
2023/04/12 02:20:25;;;;;;;2.10;1.50;;;2.70;99.90;;;;;;5039641;28;20522;-75
2023/04/12 02:22:52;;;;;;;1.73;1.37;;;2.70;99.90;;;;;;5033339;28;20453;-75
2023/04/12 02:25:19;;;;;;;3.50;1.83;;;2.60;99.90;;;;;;5042883;28;20456;-75
2023/04/12 02:27:47;;;;;;;4.47;1.87;;;2.60;99.90;;;;;;5041513;28;20477;-75
2023/04/12 02:30:14;;;;;;;4.33;2.70;;;2.50;99.90;;;;;;5044006;28;20935;-76
2023/04/12 02:32:45;;;;;;;2.60;1.53;;;2.50;99.90;;;;;;5040997;28;20980;-76
2023/04/12 02:35:13;;;;;;;2.90;1.80;;;2.50;99.90;;;;;;5042138;28;20449;-76
2023/04/12 02:37:40;;;;;;;6.03;2.00;;;2.50;99.90;;;;;;5036637;28;20491;-76
2023/04/12 02:40:10;;;;;;;4.30;1.93;;;2.50;99.90;;;;;;5037798;28;20453;-76
2023/04/12 02:42:37;;;;;;;1.87;1.77;;;2.40;99.90;;;;;;5039193;28;20458;-76
2023/04/12 02:45:05;;;;;;;5.33;2.07;;;2.40;99.90;;;;;;5037302;28;20446;-76
2023/04/12 02:47:32;;;;;;;4.83;2.37;;;2.50;99.90;;;;;;5031525;28;21238;-76
2023/04/12 02:50:01;;;;;;;4.20;2.07;;;2.50;99.90;;;;;;5031337;28;20462;-75
2023/04/12 02:52:28;;;;;;;2.80;2.10;;;2.30;99.90;;;;;;5029181;28;20527;-76
2023/04/12 02:54:57;;;;;;;4.70;2.60;;;2.10;99.90;;;;;;5041764;28;20485;-76
2023/04/12 02:57:24;;;;;;;8.73;2.63;;;2.10;99.90;;;;;;5033298;28;20479;-76
2023/04/12 02:59:53;;;;;;;3.03;2.43;;;2.00;99.90;;;;;;5038078;28;20529;-75
2023/04/12 03:02:20;;;;;;;5.40;4.30;;;2.00;99.90;;;;;;5031280;28;20541;-76
2023/04/12 03:04:49;;;;;;;7.10;5.00;;;2.00;99.90;;;;;;5031397;28;20465;-75
2023/04/12 03:07:20;;;;;;;4.37;4.00;;;2.00;99.90;;;;;;5039512;28;20445;-75
2023/04/12 03:09:47;;;;;;;5.63;5.13;;;2.00;99.90;;;;;;5035209;28;20963;-75
2023/04/12 03:12:14;;;;;;;5.20;4.03;;;1.90;99.90;;;;;;5039020;28;20465;-76
2023/04/12 03:14:41;;;;;;;6.57;5.87;;;1.80;99.90;;;;;;5037104;28;21023;-76
2023/04/12 03:17:09;;;;;;;5.47;4.97;;;1.90;99.90;;;;;;5040501;28;20465;-76
2023/04/12 03:19:36;;;;;;;5.50;4.83;;;2.00;99.90;;;;;;5040306;28;20438;-76
2023/04/12 03:22:04;;;;;;;5.57;5.07;;;2.00;99.90;;;;;;5035420;28;20844;-75
2023/04/12 03:24:33;;;;;;;7.43;5.70;;;2.00;99.90;;;;;;5035879;28;20469;-75
2023/04/12 03:27:01;;;;;;;6.17;4.50;;;2.00;99.90;;;;;;5039124;28;20462;-75
2023/04/12 03:29:28;;;;;;;3.53;2.70;;;2.00;99.90;;;;;;5042409;28;20485;-75
2023/04/12 03:31:56;;;;;;;6.70;4.27;;;1.80;99.90;;;;;;5032356;28;20469;-75
2023/04/12 03:34:24;;;;;;;4.50;4.10;;;1.70;99.90;;;;;;5041076;28;20947;-75
2023/04/12 03:36:51;;;;;;;9.33;5.47;;;1.70;99.90;;;;;;5043881;28;20445;-75
2023/04/12 03:39:18;;;;;;;12.60;7.43;;;1.70;99.90;;;;;;5033137;28;20481;-75
2023/04/12 03:41:46;;;;;;;110.40;21.90;;;1.80;99.90;;;;;;5040864;28;20453;-75
2023/04/12 03:44:13;;;;;;;115.17;22.27;;;1.90;99.90;;;;;;5041169;28;20782;-76
2023/04/12 03:46:40;;;;;;;66.87;15.30;;;1.90;99.90;;;;;;5040578;28;20515;-75
2023/04/12 03:49:07;;;;;;;89.90;22.77;;;1.60;99.90;;;;;;5041741;28;20484;-75
2023/04/12 03:51:34;;;;;;;44.00;13.67;;;1.60;99.90;;;;;;5032667;28;20629;-76
2023/04/12 03:54:03;;;;;;;54.33;17.13;;;1.60;99.90;;;;;;5037488;28;20884;-76
2023/04/12 03:56:30;;;;;;;40.37;12.30;;;1.50;99.90;;;;;;5039951;28;21330;-75
2023/04/12 03:58:58;;;;;;;27.07;10.43;;;1.40;99.90;;;;;;5037725;28;20494;-76
2023/04/12 04:01:25;;;;;;;8.53;6.93;;;1.30;99.90;;;;;;5032747;28;20530;-75
2023/04/12 04:03:52;;;;;;;7.57;6.40;;;1.30;99.90;;;;;;5029193;28;20484;-76
2023/04/12 04:06:19;;;;;;;6.63;5.90;;;1.30;99.90;;;;;;5041435;28;20785;-75
2023/04/12 04:08:46;;;;;;;6.57;5.90;;;1.20;99.90;;;;;;5036327;28;20542;-76
2023/04/12 04:11:13;;;;;;;5.17;4.67;;;1.20;99.90;;;;;;5039721;28;20964;-75
2023/04/12 04:13:40;;;;;;;6.40;5.80;;;1.10;99.90;;;;;;5034425;28;20500;-76
2023/04/12 04:16:09;;;;;;;5.27;4.77;;;1.10;99.90;;;;;;5028896;28;20526;-76
2023/04/12 04:18:36;;;;;;;5.23;4.73;;;1.10;99.90;;;;;;5036961;28;20525;-75
2023/04/12 04:21:03;;;;;;;5.20;3.80;;;1.00;99.90;;;;;;5044703;28;20498;-75
2023/04/12 04:23:37;;;;;;;5.03;4.53;;;1.00;99.90;;;;;;5034452;28;20465;-76
2023/04/12 04:26:05;;;;;;;5.43;4.93;;;1.00;99.90;;;;;;5033882;28;20461;-75
2023/04/12 04:28:33;;;;;;;5.50;4.40;;;0.90;99.90;;;;;;5035979;28;20860;-75
2023/04/12 04:31:04;;;;;;;5.07;4.27;;;0.90;99.90;;;;;;5031378;28;20469;-75
2023/04/12 04:33:32;;;;;;;4.07;3.60;;;0.90;99.90;;;;;;5034165;28;20466;-75
2023/04/12 04:36:00;;;;;;;13.63;5.57;;;0.90;99.90;;;;;;5043651;28;20441;-76
2023/04/12 04:38:27;;;;;;;41.13;11.57;;;0.90;99.90;;;;;;5036299;28;21127;-76
2023/04/12 04:40:54;;;;;;;14.83;5.10;;;0.80;99.90;;;;;;5026481;28;20497;-76
2023/04/12 04:43:21;;;;;;;8.93;5.27;;;0.80;99.90;;;;;;5035687;28;20461;-75
2023/04/12 04:45:53;;;;;;;34.90;8.77;;;0.80;99.90;;;;;;5041098;28;20537;-75
2023/04/12 04:48:20;;;;;;;26.53;9.17;;;0.70;99.90;;;;;;5037453;28;21163;-75
2023/04/12 04:50:50;;;;;;;17.43;4.93;;;0.80;99.90;;;;;;5040219;28;20972;-75
2023/04/12 04:53:18;;;;;;;17.90;5.80;;;0.80;99.90;;;;;;5046179;28;20503;-76
2023/04/12 04:55:46;;;;;;;16.20;5.90;;;0.90;99.90;;;;;;5041973;28;20904;-75
2023/04/12 04:58:13;;;;;;;9.13;5.50;;;0.90;99.90;;;;;;5035642;28;20461;-76
2023/04/12 05:00:43;;;;;;;7.73;4.70;;;1.00;99.90;;;;;;5041961;28;20465;-75
2023/04/12 05:03:10;;;;;;;5.30;4.80;;;1.10;99.90;;;;;;5040447;28;20587;-76
2023/04/12 05:05:38;;;;;;;5.80;4.73;;;1.30;99.90;;;;;;5042784;28;20469;-76
2023/04/12 05:08:06;;;;;;;4.63;4.03;;;1.40;99.90;;;;;;5044899;28;20516;-76
2023/04/12 05:10:33;;;;;;;20.17;7.40;;;1.50;99.90;;;;;;5038171;28;20944;-75
2023/04/12 05:13:00;;;;;;;43.90;12.37;;;1.70;99.90;;;;;;5044133;28;20521;-76
2023/04/12 05:15:27;;;;;;;44.50;9.43;;;1.80;99.90;;;;;;5039646;28;20960;-75
2023/04/12 05:17:54;;;;;;;15.03;8.87;;;1.90;99.90;;;;;;5037292;28;20530;-76
2023/04/12 05:20:21;;;;;;;14.50;8.33;;;2.10;99.90;;;;;;5038724;28;20462;-75
2023/04/12 05:22:48;;;;;;;30.77;11.73;;;2.20;99.90;;;;;;5050432;28;20465;-75
2023/04/12 05:25:18;;;;;;;6.20;5.60;;;2.40;99.90;;;;;;5057865;28;21239;-75
2023/04/12 05:27:45;;;;;;;7.17;6.00;;;2.60;99.90;;;;;;5042615;28;20461;-76
2023/04/12 05:30:13;;;;;;;23.20;8.70;;;2.70;99.90;;;;;;5044482;28;20512;-76
2023/04/12 05:32:40;;;;;;;17.83;8.80;;;2.80;99.90;;;;;;5045504;28;21065;-77
2023/04/12 05:35:07;;;;;;;112.13;24.30;;;3.10;99.90;;;;;;5045322;28;20921;-76
2023/04/12 05:37:34;;;;;;;52.17;12.57;;;3.30;99.90;;;;;;5047192;28;20554;-76
2023/04/12 05:40:05;;;;;;;71.90;17.03;;;3.50;99.90;;;;;;5042061;28;20523;-75
2023/04/12 05:42:34;;;;;;;38.70;14.43;;;3.60;99.90;;;;;;5043270;28;20558;-76
2023/04/12 05:45:01;;;;;;;109.17;23.63;;;3.60;99.90;;;;;;5045392;28;20733;-76
2023/04/12 05:47:28;;;;;;;165.77;36.20;;;3.40;99.90;;;;;;5042385;28;20462;-76
2023/04/12 05:49:55;;;;;;;16.07;6.97;;;3.40;99.90;;;;;;5038887;28;20489;-76
2023/04/12 05:52:21;;;;;;;10.93;6.87;;;3.50;99.90;;;;;;5041263;28;20468;-76
2023/04/12 05:54:48;;;;;;;14.67;6.97;;;3.30;99.90;;;;;;5049008;28;20939;-76
2023/04/12 05:57:16;;;;;;;30.83;10.80;;;3.50;99.90;;;;;;5046103;28;20480;-76
2023/04/12 05:59:44;;;;;;;22.53;8.03;;;3.60;99.90;;;;;;5038045;28;20475;-76
2023/04/12 06:02:11;;;;;;;13.90;6.97;;;3.90;99.90;;;;;;5045501;28;21189;-77
2023/04/12 06:04:39;;;;;;;7.67;6.13;;;3.80;99.90;;;;;;5042766;28;20515;-76
2023/04/12 06:07:08;;;;;;;8.33;7.50;;;3.70;99.90;;;;;;5028983;28;20472;-76
2023/04/12 06:09:35;;;;;;;17.40;8.67;;;3.90;99.90;;;;;;5036626;28;20490;-76
2023/04/12 06:12:02;;;;;;;7.90;6.23;;;4.10;99.90;;;;;;5038551;28;20461;-77
2023/04/12 06:14:29;;;;;;;14.00;9.00;;;4.50;99.90;;;;;;5044414;28;20976;-76
2023/04/12 06:16:57;;;;;;;25.67;11.87;;;4.80;99.90;;;;;;5041644;28;20472;-76
2023/04/12 06:19:25;;;;;;;8.90;5.23;;;5.00;99.90;;;;;;5044916;28;20491;-76
2023/04/12 06:21:52;;;;;;;7.03;6.43;;;5.00;99.90;;;;;;5045600;28;20461;-77
2023/04/12 06:24:19;;;;;;;7.97;6.70;;;5.00;99.90;;;;;;5035987;28;20564;-77
2023/04/12 06:26:46;;;;;;;9.20;5.80;;;5.00;99.90;;;;;;5044801;28;20453;-76
2023/04/12 06:29:13;;;;;;;7.67;6.50;;;4.80;99.90;;;;;;5039491;28;20604;-76
2023/04/12 06:31:40;;;;;;;6.47;5.87;;;4.90;99.90;;;;;;5045216;28;20457;-76
2023/04/12 06:34:08;;;;;;;9.40;7.70;;;5.00;99.90;;;;;;5037062;28;20554;-77
2023/04/12 06:36:36;;;;;;;7.80;6.60;;;5.20;99.90;;;;;;5039190;28;20468;-76
2023/04/12 06:39:03;;;;;;;7.00;5.93;;;5.40;99.90;;;;;;5042843;28;20468;-77
2023/04/12 06:41:29;;;;;;;4.73;4.40;;;5.60;99.90;;;;;;5046829;28;20518;-77
2023/04/12 06:43:56;;;;;;;6.53;4.93;;;5.50;99.90;;;;;;5043231;28;20500;-76
2023/04/12 06:46:26;;;;;;;5.23;4.30;;;5.80;99.90;;;;;;5040937;28;20445;-76
2023/04/12 06:48:53;;;;;;;5.90;5.20;;;5.90;99.90;;;;;;5045593;28;20968;-77
2023/04/12 06:51:21;;;;;;;3.93;3.63;;;6.00;99.90;;;;;;5036023;28;20485;-77
2023/04/12 06:53:48;;;;;;;4.70;4.13;;;6.10;99.90;;;;;;5034693;28;20487;-77
2023/04/12 06:56:15;;;;;;;5.57;4.00;;;5.90;99.90;;;;;;5043255;28;20829;-77
2023/04/12 06:58:43;;;;;;;3.10;2.90;;;5.80;99.90;;;;;;5040575;28;20522;-76
2023/04/12 07:01:11;;;;;;;9.03;2.57;;;5.90;99.90;;;;;;5038863;28;20492;-76
2023/04/12 07:03:38;;;;;;;5.13;3.50;;;6.10;99.90;;;;;;5040842;28;20453;-76
2023/04/12 07:06:06;;;;;;;3.30;2.70;;;6.10;99.90;;;;;;5037675;28;20903;-76
2023/04/12 07:08:36;;;;;;;3.20;3.00;;;6.20;99.90;;;;;;5044547;28;20518;-76
2023/04/12 07:11:03;;;;;;;3.83;3.43;;;6.00;99.90;;;;;;5045666;28;20502;-76
2023/04/12 07:13:30;;;;;;;4.63;4.23;;;6.00;99.90;;;;;;5044154;28;20485;-76
2023/04/12 07:15:59;;;;;;;4.90;2.80;;;6.10;99.90;;;;;;5040993;28;20472;-76
2023/04/12 07:18:26;;;;;;;3.77;3.37;;;6.20;99.90;;;;;;5041020;28;20928;-76
2023/04/12 07:20:55;;;;;;;2.70;2.33;;;6.20;99.90;;;;;;5044261;28;20858;-76
2023/04/12 07:23:22;;;;;;;3.07;2.40;;;6.40;99.90;;;;;;5036033;28;20477;-76
2023/04/12 07:25:50;;;;;;;2.90;2.70;;;6.20;99.90;;;;;;5043509;28;20507;-76
2023/04/12 07:28:20;;;;;;;3.30;2.87;;;6.50;99.90;;;;;;5043333;28;20477;-76
2023/04/12 07:30:46;;;;;;;3.33;2.40;;;6.50;99.90;;;;;;5042836;28;20517;-76
2023/04/12 07:33:13;;;;;;;4.10;3.70;;;6.70;99.90;;;;;;5040264;28;20515;-76
2023/04/12 07:35:41;;;;;;;2.90;2.70;;;6.90;99.90;;;;;;5034085;28;20457;-76
2023/04/12 07:38:08;;;;;;;2.27;2.07;;;7.00;99.90;;;;;;5045320;28;20460;-78
2023/04/12 07:40:36;;;;;;;3.43;3.13;;;7.20;99.90;;;;;;5037986;28;20437;-77
2023/04/12 07:43:04;;;;;;;3.27;2.97;;;7.20;99.90;;;;;;5043905;28;20461;-77
2023/04/12 07:45:31;;;;;;;4.50;3.40;;;7.30;99.90;;;;;;5038130;28;20507;-77
2023/04/12 07:47:58;;;;;;;6.20;4.80;;;7.40;99.90;;;;;;5038514;28;20774;-78
2023/04/12 07:50:25;;;;;;;3.07;2.87;;;7.20;99.90;;;;;;5044465;28;20513;-77
2023/04/12 07:52:52;;;;;;;2.60;2.40;;;7.50;99.90;;;;;;5029766;28;21054;-76
2023/04/12 07:55:19;;;;;;;4.00;3.70;;;7.60;99.90;;;;;;5044776;28;20477;-77
2023/04/12 07:57:46;;;;;;;3.00;2.70;;;7.80;99.90;;;;;;5035931;28;20512;-77
2023/04/12 08:00:16;;;;;;;3.30;3.00;;;7.70;99.90;;;;;;5035323;28;20457;-76
2023/04/12 08:02:43;;;;;;;3.37;3.17;;;8.10;99.90;;;;;;5043738;28;20462;-77
2023/04/12 08:05:10;;;;;;;2.93;2.73;;;8.20;99.90;;;;;;5040921;28;20457;-76
2023/04/12 08:07:37;;;;;;;2.93;2.73;;;8.10;99.90;;;;;;5036687;28;20468;-77
2023/04/12 08:10:05;;;;;;;3.80;3.53;;;8.00;99.90;;;;;;5043475;28;20485;-76
2023/04/12 08:12:32;;;;;;;2.80;2.60;;;7.90;99.90;;;;;;5041406;28;20464;-76
2023/04/12 08:14:59;;;;;;;3.97;2.93;;;8.10;99.90;;;;;;5040504;28;20453;-76
2023/04/12 08:17:27;;;;;;;2.83;2.63;;;8.20;99.90;;;;;;5045260;28;20483;-76
2023/04/12 08:19:54;;;;;;;2.77;2.33;;;8.10;99.90;;;;;;5037637;28;20514;-76
2023/04/12 08:22:21;;;;;;;7.67;3.07;;;8.20;99.90;;;;;;5044222;28;20458;-76
2023/04/12 08:24:48;;;;;;;6.97;3.17;;;8.30;99.90;;;;;;5042967;28;20449;-75
2023/04/12 08:27:15;;;;;;;2.57;2.33;;;8.50;99.90;;;;;;5043152;28;20515;-75
2023/04/12 08:29:43;;;;;;;2.53;2.30;;;8.60;99.90;;;;;;5040930;28;20488;-75
2023/04/12 08:32:11;;;;;;;3.03;2.13;;;8.50;99.90;;;;;;5042820;28;20468;-75
2023/04/12 08:34:40;;;;;;;3.73;2.63;;;8.40;99.90;;;;;;5044130;28;20941;-76
2023/04/12 08:37:07;;;;;;;2.00;1.90;;;8.70;99.90;;;;;;5038946;28;20461;-75
2023/04/12 08:39:34;;;;;;;3.47;3.17;;;8.80;99.90;;;;;;5042715;28;20449;-78
2023/04/12 08:42:02;;;;;;;3.30;2.00;;;8.60;99.90;;;;;;5037840;28;20795;-76
2023/04/12 08:44:36;;;;;;;2.40;2.20;;;8.60;99.90;;;;;;5031521;28;20469;-78
2023/04/12 08:47:04;;;;;;;2.23;1.90;;;8.60;99.90;;;;;;5042402;28;20468;-76
2023/04/12 08:49:32;;;;;;;4.70;3.03;;;8.80;99.90;;;;;;5039286;28;20508;-76
2023/04/12 08:52:05;;;;;;;2.73;2.20;;;9.00;99.90;;;;;;5039550;28;20477;-77
2023/04/12 08:54:32;;;;;;;2.13;1.93;;;8.90;99.90;;;;;;5043898;28;20903;-77
2023/04/12 08:57:01;;;;;;;3.17;2.73;;;9.10;99.90;;;;;;5044720;28;21077;-76
2023/04/12 08:59:29;;;;;;;4.00;2.23;;;9.40;99.90;;;;;;5045503;28;20549;-77
2023/04/12 09:01:58;;;;;;;4.93;3.17;;;9.60;99.90;;;;;;5033814;28;20546;-76
2023/04/12 09:04:26;;;;;;;4.93;1.73;;;9.50;99.90;;;;;;5047922;28;20457;-76
2023/04/12 09:06:53;;;;;;;2.30;2.17;;;9.70;99.90;;;;;;5043522;28;20461;-76
2023/04/12 09:09:40;;;;;;;3.83;2.60;;;9.60;99.90;;;;;;5048224;28;21183;-76
2023/04/12 09:12:08;;;;;;;1.60;1.50;;;9.80;99.90;;;;;;5047898;28;20503;-77
2023/04/12 09:14:35;;;;;;;2.03;1.77;;;9.90;99.90;;;;;;5044274;28;20466;-76
2023/04/12 09:17:02;;;;;;;1.83;1.60;;;9.80;99.90;;;;;;5043358;28;20476;-76
2023/04/12 09:19:33;;;;;;;4.10;2.23;;;10.00;99.90;;;;;;5043193;28;20510;-76
2023/04/12 09:22:01;;;;;;;2.13;1.90;;;10.10;99.90;;;;;;5044151;28;20453;-76
2023/04/12 09:24:30;;;;;;;2.40;2.20;;;10.40;99.90;;;;;;5040830;28;20452;-77
2023/04/12 09:27:02;;;;;;;9.90;2.00;;;10.60;99.90;;;;;;5044052;28;20468;-77
2023/04/12 09:29:30;;;;;;;1.90;1.80;;;10.70;99.90;;;;;;5044009;28;20493;-76
2023/04/12 09:32:01;;;;;;;2.10;2.00;;;10.80;99.90;;;;;;5045783;28;20942;-76
2023/04/12 09:34:28;;;;;;;2.13;1.93;;;11.00;99.90;;;;;;5045300;28;20502;-77
2023/04/12 09:36:56;;;;;;;2.00;1.63;;;10.80;99.90;;;;;;5040851;28;20472;-77
2023/04/12 09:39:32;;;;;;;1.90;1.80;;;11.10;99.90;;;;;;5041221;28;20498;-76
2023/04/12 09:42:07;;;;;;;2.23;2.03;;;11.20;99.90;;;;;;5045995;28;20930;-76
2023/04/12 09:44:34;;;;;;;3.53;2.60;;;11.10;99.90;;;;;;5043735;28;20448;-76
2023/04/12 09:47:03;;;;;;;4.30;2.03;;;11.20;99.90;;;;;;5043886;28;20449;-77
2023/04/12 09:49:40;;;;;;;3.17;2.83;;;11.60;99.90;;;;;;5046451;28;20460;-76
2023/04/12 09:52:09;;;;;;;3.80;2.50;;;11.40;99.90;;;;;;5035519;28;20530;-76
2023/04/12 09:54:42;;;;;;;2.67;2.20;;;11.50;99.90;;;;;;5047597;28;20452;-77
2023/04/12 09:57:09;;;;;;;2.40;2.20;;;11.50;99.90;;;;;;5045931;28;21059;-78
2023/04/12 09:59:38;;;;;;;2.13;1.97;;;11.80;99.90;;;;;;5037936;28;20462;-77
2023/04/12 10:02:11;;;;;;;1.90;1.80;;;12.10;99.90;;;;;;5046738;28;20441;-76
2023/04/12 10:04:41;;;;;;;2.00;1.90;;;12.20;99.90;;;;;;5035442;28;20464;-76
2023/04/12 10:07:08;;;;;;;2.80;2.60;;;12.00;99.90;;;;;;5043220;28;20487;-76
2023/04/12 10:09:38;;;;;;;2.57;2.40;;;12.40;99.90;;;;;;5036373;28;20445;-77
2023/04/12 10:12:08;;;;;;;4.30;2.10;;;12.40;99.90;;;;;;5043874;28;20526;-77
2023/04/12 10:14:35;;;;;;;1.80;1.70;;;12.70;99.90;;;;;;5039275;28;20922;-77
2023/04/12 10:17:04;;;;;;;2.60;1.90;;;12.70;99.90;;;;;;5044673;28;20887;-77
2023/04/12 10:19:33;;;;;;;5.43;1.97;;;12.90;99.90;;;;;;5044815;28;20454;-77
2023/04/12 10:22:00;;;;;;;4.10;2.00;;;13.10;99.90;;;;;;5044293;28;20449;-77
2023/04/12 10:24:29;;;;;;;4.00;1.50;;;13.30;99.90;;;;;;5044923;28;20453;-77
2023/04/12 10:26:59;;;;;;;2.80;1.70;;;13.00;99.90;;;;;;5042135;28;20659;-77
2023/04/12 10:29:29;;;;;;;2.03;1.20;;;13.30;99.90;;;;;;5037618;28;20454;-77
2023/04/12 10:31:57;;;;;;;3.33;1.67;;;14.00;99.90;;;;;;5044966;28;20461;-78
2023/04/12 10:34:27;;;;;;;1.50;1.20;;;14.30;99.90;;;;;;5046120;28;20457;-77
2023/04/12 10:36:56;;;;;;;1.23;0.90;;;14.60;99.90;;;;;;5031091;28;20466;-77
2023/04/12 10:39:38;;;;;;;2.20;1.57;;;14.60;99.90;;;;;;5039964;28;20453;-78
2023/04/12 10:42:25;;;;;;;1.83;0.90;;;14.90;98.90;;;;;;5043236;28;20457;-77
2023/04/12 10:44:55;;;;;;;1.90;1.60;;;14.80;97.80;;;;;;5040613;28;20449;-78
2023/04/12 10:47:57;;;;;;;1.23;0.80;;;15.20;99.80;;;;;;5042456;28;20978;-78
2023/04/12 10:50:26;;;;;;;2.73;1.10;;;15.10;97.60;;;;;;5038471;28;20580;-77
2023/04/12 10:53:21;;;;;;;2.00;1.50;;;15.20;97.40;;;;;;5041708;28;20469;-78
2023/04/12 10:55:48;;;;;;;3.43;1.27;;;15.30;97.20;;;;;;5018710;28;20553;-78
2023/04/12 10:58:48;;;;;;;2.60;0.90;;;15.20;97.90;;;;;;5043844;28;20511;-78
2023/04/12 11:01:17;;;;;;;1.90;1.00;;;15.70;95.70;;;;;;5043438;28;20449;-78
2023/04/12 11:04:20;;;;;;;2.20;0.87;;;15.70;93.40;;;;;;5042037;28;20472;-78
2023/04/12 11:06:56;;;;;;;2.20;1.50;;;15.80;95.50;;;;;;5035681;28;20526;-78
2023/04/12 11:09:25;;;;;;;1.97;0.90;;;15.70;96.20;;;;;;5045541;28;20448;-77
2023/04/12 11:12:12;;;;;;;1.43;1.03;;;15.90;94.90;;;;;;5033522;28;20973;-77
2023/04/12 11:14:45;;;;;;;1.73;0.70;;;15.40;91.90;;;;;;5036777;28;20539;-77
2023/04/12 11:17:26;;;;;;;7.13;1.63;;;15.30;93.10;;;;;;5040784;28;20456;-78
2023/04/12 11:19:58;;;;;;;1.07;0.97;;;14.90;95.90;;;;;;5034866;28;20534;-77
2023/04/12 11:22:27;;;;;;;3.13;1.60;;;15.00;95.40;;;;;;5045647;28;20449;-77
2023/04/12 11:24:56;;;;;;;2.20;0.97;;;15.30;95.10;;;;;;5039729;28;20960;-78
2023/04/12 11:27:25;;;;;;;1.30;1.10;;;16.00;95.30;;;;;;5044209;28;20445;-78
2023/04/12 11:29:54;;;;;;;2.70;1.20;;;16.40;91.50;;;;;;5042044;28;20449;-77
2023/04/12 11:32:23;;;;;;;2.57;0.87;;;15.60;92.30;;;;;;5040795;28;20510;-78
2023/04/12 11:34:51;;;;;;;0.80;0.70;;;15.90;93.00;;;;;;5037759;28;20473;-77
2023/04/12 11:37:21;;;;;;;1.63;0.70;;;16.10;91.10;;;;;;5043408;28;20450;-77
2023/04/12 11:39:52;;;;;;;0.70;0.70;;;16.00;88.90;;;;;;5037826;28;20449;-77
2023/04/12 11:42:20;;;;;;;1.53;1.10;;;16.30;90.70;;;;;;5039321;28;20478;-78
2023/04/12 11:44:48;;;;;;;0.70;0.70;;;16.30;90.30;;;;;;5042475;28;20485;-77
2023/04/12 11:47:16;;;;;;;2.00;0.80;;;16.10;88.00;;;;;;5044744;28;20507;-77
2023/04/12 11:49:48;;;;;;;3.10;1.03;;;15.70;90.10;;;;;;5038526;28;20479;-77
2023/04/12 11:52:18;;;;;;;1.60;0.67;;;15.70;87.10;;;;;;5035260;28;21259;-78
2023/04/12 11:54:47;;;;;;;1.30;0.83;;;15.30;85.70;;;;;;5042875;28;20848;-77
2023/04/12 11:57:16;;;;;;;2.20;0.80;;;15.30;86.40;;;;;;5035977;28;20574;-78
2023/04/12 11:59:47;;;;;;;1.83;0.80;;;15.20;89.00;;;;;;5033985;28;21015;-78
2023/04/12 12:02:16;;;;;;;1.43;0.70;;;15.30;88.50;;;;;;5040895;28;20449;-78
2023/04/12 12:04:46;;;;;;;1.83;1.10;;;15.40;88.30;;;;;;5040578;28;20789;-78
2023/04/12 12:07:16;;;;;;;0.77;0.77;;;15.40;92.10;;;;;;5043442;28;20539;-78
2023/04/12 12:09:44;;;;;;;1.97;0.87;;;14.90;90.20;;;;;;5031963;28;20466;-78
2023/04/12 12:12:12;;;;;;;1.13;1.03;;;14.80;91.10;;;;;;5043232;28;20491;-77
2023/04/12 12:14:39;;;;;;;1.40;0.90;;;14.90;90.70;;;;;;5038086;28;20551;-78
2023/04/12 12:17:11;;;;;;;1.50;1.07;;;15.10;91.40;;;;;;5040367;28;20972;-78
2023/04/12 12:19:40;;;;;;;0.60;0.60;;;15.20;90.30;;;;;;5035549;28;20971;-78
2023/04/12 12:22:20;;;;;;;1.70;1.00;;;15.40;92.20;;;;;;5041051;28;20534;-78
2023/04/12 12:24:49;;;;;;;0.57;0.50;;;15.80;92.60;;;;;;5039710;28;20518;-78
2023/04/12 12:27:21;;;;;;;0.87;0.57;;;16.30;91.80;;;;;;5041330;28;20534;-78
2023/04/12 12:29:53;;;;;;;1.77;0.77;;;16.10;89.10;;;;;;5040081;28;20808;-78
2023/04/12 12:32:21;;;;;;;2.07;0.60;;;15.80;86.80;;;;;;5044258;28;20488;-78
2023/04/12 12:34:53;;;;;;;6.10;0.83;;;15.80;87.20;;;;;;5042730;28;20461;-78
2023/04/12 12:37:30;;;;;;;1.20;0.90;;;15.70;87.80;;;;;;5037898;28;20808;-78
2023/04/12 12:40:10;;;;;;;1.27;0.60;;;15.90;89.70;;;;;;5036090;28;20454;-78
2023/04/12 12:42:38;;;;;;;2.70;0.57;;;16.10;88.60;;;;;;5036218;28;20465;-78
2023/04/12 12:45:06;;;;;;;2.47;0.50;;;15.80;83.80;;;;;;5039596;28;20450;-78
2023/04/12 12:47:33;;;;;;;0.80;0.60;;;15.70;84.00;;;;;;5039084;28;20487;-78
2023/04/12 12:50:00;;;;;;;1.80;0.80;;;15.40;85.90;;;;;;5040292;28;20450;-78
2023/04/12 12:52:27;;;;;;;1.10;0.60;;;15.10;86.70;;;;;;5040869;28;20517;-78
2023/04/12 12:54:55;;;;;;;0.67;0.60;;;15.00;85.10;;;;;;5043767;28;20522;-78
2023/04/12 12:57:22;;;;;;;1.87;0.50;;;15.10;89.20;;;;;;5044320;28;20481;-78
2023/04/12 12:59:49;;;;;;;0.90;0.70;;;15.00;90.70;;;;;;5032773;28;20466;-78
2023/04/12 13:02:18;;;;;;;3.90;0.80;;;15.10;89.50;;;;;;5037803;28;20454;-78